createdAt,value
2022-10-17T00:02:17.337Z,38.10
2022-10-17T00:04:44.134Z,37.15
2022-10-17T00:07:11.131Z,33.20
2022-10-17T00:09:37.967Z,34.90
2022-10-17T00:12:04.982Z,37.85
2022-10-17T00:14:31.854Z,39.40
2022-10-17T00:16:58.650Z,36.20
2022-10-17T00:19:44.328Z,32.88
2022-10-17T00:22:11.264Z,31.48
2022-10-17T00:24:38.074Z,32.95
2022-10-17T00:27:05.010Z,33.08
2022-10-17T00:29:31.814Z,35.60
2022-10-17T00:32:01.332Z,32.63
2022-10-17T00:34:29.790Z,36.50
2022-10-17T00:36:56.616Z,31.08
2022-10-17T00:39:23.552Z,31.02
2022-10-17T00:41:50.642Z,35.65
2022-10-17T00:44:29.526Z,26.30
2022-10-17T00:46:59.114Z,33.70
2022-10-17T00:49:28.719Z,31.73
2022-10-17T00:51:59.249Z,28.10
2022-10-17T00:54:35.660Z,29.75
2022-10-17T00:57:03.564Z,36.53
2022-10-17T00:59:34.094Z,34.28
2022-10-17T01:02:04.794Z,30.27
2022-10-17T01:04:32.086Z,31.90
2022-10-17T01:06:59.043Z,28.80
2022-10-17T01:09:27.474Z,30.58
2022-10-17T01:12:21.358Z,29.45
2022-10-17T01:14:51.002Z,29.40
2022-10-17T01:17:34.027Z,29.75
2022-10-17T01:20:34.903Z,31.75
2022-10-17T01:23:28.341Z,27.92
2022-10-17T01:26:21.519Z,31.13
2022-10-17T01:29:26.458Z,29.42
2022-10-17T01:32:02.154Z,24.42
2022-10-17T01:35:00.190Z,30.87
2022-10-17T01:37:37.534Z,25.05
2022-10-17T01:40:12.823Z,29.48
2022-10-17T01:43:02.934Z,27.58
2022-10-17T01:45:29.664Z,29.40
2022-10-17T01:48:00.827Z,26.13
2022-10-17T01:50:51.686Z,28.73
2022-10-17T01:53:36.040Z,25.63
2022-10-17T01:56:08.046Z,28.23
2022-10-17T01:58:58.588Z,28.80
2022-10-17T02:01:29.666Z,29.20
2022-10-17T02:03:58.362Z,26.60
2022-10-17T02:06:25.503Z,31.00
2022-10-17T02:08:52.435Z,24.20
2022-10-17T02:11:23.004Z,23.10
2022-10-17T02:13:58.877Z,23.88
2022-10-17T02:17:02.415Z,24.30
2022-10-17T02:19:57.902Z,23.88
2022-10-17T02:22:42.057Z,25.05
2022-10-17T02:25:20.642Z,29.73
2022-10-17T02:28:05.433Z,28.13
2022-10-17T02:31:02.968Z,28.10
2022-10-17T02:33:37.484Z,22.10
2022-10-17T02:36:09.544Z,26.23
2022-10-17T02:38:37.057Z,22.40
2022-10-17T02:41:07.936Z,22.67
2022-10-17T02:43:36.519Z,23.85
2022-10-17T02:46:04.236Z,21.60
2022-10-17T02:48:50.431Z,25.45
2022-10-17T02:51:26.011Z,27.60
2022-10-17T02:54:31.996Z,22.93
2022-10-17T02:57:03.562Z,21.77
2022-10-17T03:02:04.763Z,21.92
2022-10-17T03:04:32.838Z,24.48
2022-10-17T03:07:00.101Z,25.90
2022-10-17T03:09:27.652Z,19.95
2022-10-17T03:11:54.626Z,22.33
2022-10-17T03:14:21.594Z,20.63
2022-10-17T03:16:48.429Z,23.90
2022-10-17T03:19:15.380Z,23.13
2022-10-17T03:21:42.196Z,23.30
2022-10-17T03:24:09.225Z,17.42
2022-10-17T03:26:36.559Z,20.25
2022-10-17T03:29:04.072Z,21.48
2022-10-17T03:31:31.261Z,21.20
2022-10-17T03:33:58.221Z,24.58
2022-10-17T03:36:25.255Z,25.42
2022-10-17T03:38:55.482Z,22.63
2022-10-17T03:41:22.432Z,17.55
2022-10-17T03:43:49.394Z,24.45
2022-10-17T03:48:48.107Z,21.05
2022-10-17T03:51:15.643Z,28.80
2022-10-17T03:53:42.657Z,22.77
2022-10-17T03:56:21.805Z,20.27
2022-10-17T03:58:49.215Z,26.17
2022-10-17T04:01:17.739Z,19.70
2022-10-17T04:03:44.879Z,18.27
2022-10-17T04:06:13.047Z,20.70
2022-10-17T04:08:40.263Z,16.90
2022-10-17T04:11:08.561Z,19.38
2022-10-17T04:13:36.123Z,21.65
2022-10-17T04:16:08.730Z,22.52
2022-10-17T04:18:35.678Z,16.60
2022-10-17T04:21:03.684Z,17.60
2022-10-17T04:23:30.860Z,17.85
2022-10-17T04:25:58.935Z,22.30
2022-10-17T04:28:27.464Z,18.73
2022-10-17T04:31:02.147Z,17.75
2022-10-17T04:33:29.609Z,21.77
2022-10-17T04:36:04.805Z,18.90
2022-10-17T04:38:33.069Z,20.65
2022-10-17T04:41:05.245Z,22.63
2022-10-17T04:43:37.154Z,24.92
2022-10-17T04:46:07.231Z,20.35
2022-10-17T04:48:34.034Z,18.25
2022-10-17T04:51:04.627Z,22.63
2022-10-17T04:53:33.983Z,22.17
2022-10-17T04:56:01.168Z,23.25
2022-10-17T04:58:31.018Z,22.67
2022-10-17T05:00:57.958Z,24.63
2022-10-17T05:03:24.972Z,22.27
2022-10-17T05:05:51.855Z,22.98
2022-10-17T05:08:18.679Z,19.98
2022-10-17T05:10:48.629Z,26.73
2022-10-17T05:13:16.202Z,19.63
2022-10-17T05:15:43.051Z,23.40
2022-10-17T05:18:10.068Z,24.55
2022-10-17T05:20:36.964Z,23.98
2022-10-17T05:23:03.832Z,21.38
2022-10-17T05:25:30.711Z,23.40
2022-10-17T05:27:57.628Z,22.45
2022-10-17T05:30:24.615Z,34.08
2022-10-17T05:32:55.252Z,28.40
2022-10-17T05:35:22.889Z,27.00
2022-10-17T05:37:49.750Z,27.35
2022-10-17T05:40:16.774Z,33.15
2022-10-17T05:42:48.057Z,26.45
2022-10-17T05:45:16.087Z,27.67
2022-10-17T05:47:42.997Z,24.25
2022-10-17T05:50:10.521Z,19.45
2022-10-17T05:52:37.448Z,24.27
2022-10-17T05:55:05.880Z,25.55
2022-10-17T05:57:32.972Z,17.85
2022-10-17T06:00:01.035Z,24.85
2022-10-17T06:02:28.144Z,19.05
2022-10-17T06:04:55.452Z,23.73
2022-10-17T06:07:22.408Z,20.55
2022-10-17T06:09:49.267Z,22.17
2022-10-17T06:12:16.387Z,25.25
2022-10-17T06:14:43.308Z,18.00
2022-10-17T06:17:15.568Z,16.33
2022-10-17T06:19:44.936Z,19.85
2022-10-17T06:22:12.386Z,18.02
2022-10-17T06:24:39.328Z,26.38
2022-10-17T06:27:10.895Z,20.05
2022-10-17T06:29:57.463Z,23.55
2022-10-17T06:32:24.450Z,26.10
2022-10-17T06:34:51.358Z,22.15
2022-10-17T06:37:18.971Z,24.65
2022-10-17T06:39:45.900Z,22.45
2022-10-17T06:42:12.960Z,21.58
2022-10-17T06:44:41.200Z,18.60
2022-10-17T06:47:08.225Z,19.75
2022-10-17T06:49:35.134Z,23.88
2022-10-17T06:52:02.003Z,22.33
2022-10-17T06:54:28.924Z,19.17
2022-10-17T06:56:56.377Z,19.08
2022-10-17T06:59:23.277Z,19.17
2022-10-17T07:01:50.412Z,23.55
2022-10-17T07:04:17.468Z,27.67
2022-10-17T07:06:44.484Z,27.48
2022-10-17T07:09:11.476Z,29.08
2022-10-17T07:11:38.455Z,27.23
2022-10-17T07:14:05.325Z,30.45
2022-10-17T07:16:32.705Z,26.85
2022-10-17T07:18:59.794Z,22.75
2022-10-17T07:21:29.789Z,26.65
2022-10-17T07:23:56.710Z,30.67
2022-10-17T07:26:23.608Z,33.42
2022-10-17T07:28:54.419Z,27.17
2022-10-17T07:31:22.876Z,25.23
2022-10-17T07:33:50.327Z,24.88
2022-10-17T07:36:18.096Z,20.88
2022-10-17T07:38:45.132Z,25.17
2022-10-17T07:41:17.762Z,17.35
2022-10-17T07:43:48.042Z,21.57
2022-10-17T07:46:14.894Z,14.18
2022-10-17T07:48:41.756Z,27.40
2022-10-17T07:51:10.053Z,23.90
2022-10-17T07:53:38.748Z,18.98
2022-10-17T07:56:07.680Z,20.05
2022-10-17T07:58:35.639Z,12.23
2022-10-17T08:01:14.822Z,18.98
2022-10-17T08:03:44.615Z,21.92
2022-10-17T08:06:12.726Z,16.83
2022-10-17T08:08:39.727Z,16.88
2022-10-17T08:11:12.002Z,16.02
2022-10-17T08:13:40.570Z,18.70
2022-10-17T08:16:10.716Z,16.45
2022-10-17T08:18:40.662Z,20.30
2022-10-17T08:21:08.644Z,15.57
2022-10-17T08:23:36.544Z,9.93
2022-10-17T08:26:05.966Z,11.13
2022-10-17T08:28:35.867Z,14.93
2022-10-17T08:31:05.083Z,11.85
2022-10-17T08:33:33.427Z,16.25
2022-10-17T08:36:02.093Z,10.32
2022-10-17T08:38:32.111Z,8.45
2022-10-17T08:41:21.850Z,12.05
2022-10-17T08:44:33.429Z,14.15
2022-10-17T08:47:04.648Z,9.23
2022-10-17T08:49:47.295Z,9.40
2022-10-17T08:52:32.942Z,10.35
2022-10-17T08:54:59.881Z,9.77
2022-10-17T08:57:29.121Z,11.15
2022-10-17T08:59:57.463Z,14.05
2022-10-17T09:02:45.080Z,10.05
2022-10-17T09:05:44.335Z,8.00
2022-10-17T09:08:23.275Z,6.82
2022-10-17T09:10:56.664Z,9.93
2022-10-17T09:13:54.477Z,11.32
2022-10-17T09:16:38.432Z,8.48
2022-10-17T09:19:29.493Z,9.23
2022-10-17T09:22:09.503Z,12.77
2022-10-17T09:24:39.178Z,11.25
2022-10-17T09:27:29.978Z,13.70
2022-10-17T09:30:44.212Z,17.08
2022-10-17T09:33:34.283Z,12.50
2022-10-17T09:36:05.921Z,8.77
2022-10-17T09:38:45.982Z,11.30
2022-10-17T09:41:44.194Z,8.27
2022-10-17T09:44:22.118Z,11.73
2022-10-17T09:50:31.954Z,11.13
2022-10-17T09:53:11.659Z,8.10
2022-10-17T09:55:51.152Z,9.23
2022-10-17T09:58:18.064Z,11.23
2022-10-17T10:00:47.695Z,9.30
2022-10-17T10:03:22.078Z,12.15
2022-10-17T10:06:05.169Z,7.60
2022-10-17T10:08:36.025Z,9.48
2022-10-17T10:11:13.415Z,10.95
2022-10-17T10:13:41.248Z,6.70
2022-10-17T10:16:41.668Z,10.55
2022-10-17T10:19:26.739Z,10.95
2022-10-17T10:22:00.025Z,11.25
2022-10-17T10:24:30.754Z,9.48
2022-10-17T10:27:02.600Z,11.82
2022-10-17T10:29:34.416Z,14.23
2022-10-17T10:32:29.642Z,9.88
2022-10-17T10:35:23.099Z,5.75
2022-10-17T10:37:56.458Z,10.05
2022-10-17T10:40:27.597Z,11.02
2022-10-17T10:43:04.029Z,7.65
2022-10-17T10:45:53.387Z,9.95
2022-10-17T10:48:24.658Z,10.10
2022-10-17T10:51:14.692Z,7.75
2022-10-17T10:54:18.007Z,9.63
2022-10-17T10:56:53.688Z,8.00
2022-10-17T10:59:35.573Z,12.13
2022-10-17T11:02:34.496Z,7.90
2022-10-17T11:05:21.181Z,6.95
2022-10-17T11:08:04.236Z,11.90
2022-10-17T11:10:44.588Z,14.90
2022-10-17T11:13:18.172Z,8.70
2022-10-17T11:15:52.812Z,8.32
2022-10-17T11:18:41.221Z,7.80
2022-10-17T11:21:24.434Z,7.72
2022-10-17T11:24:17.683Z,9.73
2022-10-17T11:27:06.970Z,7.28
2022-10-17T11:29:38.426Z,11.63
2022-10-17T11:32:35.299Z,13.00
2022-10-17T11:35:36.859Z,5.85
2022-10-17T11:38:26.804Z,5.88
2022-10-17T11:40:59.929Z,5.25
2022-10-17T11:43:35.592Z,7.97
2022-10-17T11:46:11.640Z,5.77
2022-10-17T11:49:01.072Z,4.65
2022-10-17T11:54:28.911Z,32.58
2022-10-17T11:57:37.474Z,7.18
2022-10-17T12:00:49.121Z,7.45
2022-10-17T12:03:35.069Z,6.72
2022-10-17T12:06:40.433Z,6.97
2022-10-17T12:09:20.995Z,6.45
2022-10-17T12:12:04.672Z,4.97
2022-10-17T12:14:41.955Z,5.55
2022-10-17T12:17:35.591Z,5.10
2022-10-17T12:20:35.781Z,7.38
2022-10-17T12:23:11.446Z,6.43
2022-10-17T12:26:01.535Z,7.33
2022-10-17T12:28:44.614Z,11.88
2022-10-17T12:31:29.564Z,7.18
2022-10-17T12:34:02.223Z,3.90
2022-10-17T12:36:29.084Z,5.53
2022-10-17T12:39:01.969Z,7.00
2022-10-17T12:41:45.174Z,10.07
2022-10-17T12:44:15.142Z,8.23
2022-10-17T12:46:45.060Z,9.38
2022-10-17T12:49:39.733Z,5.78
2022-10-17T12:52:15.393Z,10.88
2022-10-17T12:55:00.364Z,7.60
2022-10-17T12:57:55.809Z,4.45
2022-10-17T13:00:25.480Z,4.80
2022-10-17T13:02:54.942Z,5.80
2022-10-17T13:05:31.794Z,7.75
2022-10-17T13:08:02.455Z,5.57
2022-10-17T13:10:33.623Z,9.95
2022-10-17T13:13:15.806Z,8.00
2022-10-17T13:15:50.636Z,6.18
2022-10-17T13:18:23.456Z,7.65
2022-10-17T13:21:14.492Z,7.57
2022-10-17T13:23:41.625Z,6.93
2022-10-17T13:26:26.785Z,8.07
2022-10-17T13:29:12.680Z,8.93
2022-10-17T13:31:42.453Z,12.73
2022-10-17T13:34:18.391Z,7.90
2022-10-17T13:36:49.244Z,8.77
2022-10-17T13:39:23.090Z,9.10
2022-10-17T13:41:59.856Z,10.57
2022-10-17T13:44:32.638Z,9.77
2022-10-17T13:46:59.730Z,5.97
2022-10-17T13:49:34.830Z,10.38
2022-10-17T13:52:05.360Z,9.48
2022-10-17T13:54:36.956Z,11.48
2022-10-17T13:57:05.856Z,9.50
2022-10-17T13:59:43.545Z,9.45
2022-10-17T14:02:25.472Z,9.23
2022-10-17T14:05:19.340Z,12.48
2022-10-17T14:08:11.334Z,12.02
2022-10-17T14:10:41.176Z,7.63
2022-10-17T14:13:23.013Z,9.05
2022-10-17T14:15:51.131Z,5.35
2022-10-17T14:18:24.117Z,5.85
2022-10-17T14:23:44.170Z,8.40
2022-10-17T14:26:18.911Z,7.10
2022-10-17T14:29:07.580Z,10.00
2022-10-17T14:31:37.631Z,6.35
2022-10-17T14:34:05.733Z,9.55
2022-10-17T14:36:36.225Z,7.80
2022-10-17T14:39:05.094Z,7.00
2022-10-17T14:41:42.791Z,11.43
2022-10-17T14:44:19.094Z,17.55
2022-10-17T14:46:50.804Z,11.23
2022-10-17T14:49:25.440Z,14.15
2022-10-17T14:52:18.594Z,10.07
2022-10-17T14:54:48.329Z,10.85
2022-10-17T14:57:19.418Z,10.07
2022-10-17T14:59:55.081Z,8.45
2022-10-17T15:02:27.845Z,9.20
2022-10-17T15:04:55.211Z,11.68
2022-10-17T15:07:22.432Z,9.25
2022-10-17T15:09:51.191Z,14.70
2022-10-17T15:12:20.758Z,16.35
2022-10-17T15:14:48.682Z,10.85
2022-10-17T15:17:20.982Z,12.13
2022-10-17T15:19:48.807Z,20.83
2022-10-17T15:22:16.388Z,11.75
2022-10-17T15:24:43.370Z,12.82
2022-10-17T15:27:24.662Z,16.77
2022-10-17T15:29:53.186Z,17.48
2022-10-17T15:32:20.106Z,20.88
2022-10-17T15:34:47.266Z,15.30
2022-10-17T15:37:25.591Z,16.50
2022-10-17T15:39:55.712Z,21.33
2022-10-17T15:42:26.889Z,20.83
2022-10-17T15:44:54.044Z,19.10
2022-10-17T15:47:35.491Z,18.25
2022-10-17T15:50:22.049Z,15.95
2022-10-17T15:52:51.160Z,18.52
2022-10-17T15:55:18.447Z,22.42
2022-10-17T15:57:47.621Z,21.67
2022-10-17T16:00:20.733Z,18.48
2022-10-17T16:02:50.228Z,16.92
2022-10-17T16:05:29.348Z,18.27
2022-10-17T16:07:57.654Z,19.52
2022-10-17T16:10:26.141Z,18.05
2022-10-17T16:12:53.134Z,21.95
2022-10-17T16:15:24.123Z,34.97
2022-10-17T16:17:52.443Z,21.13
2022-10-17T16:20:20.373Z,22.30
2022-10-17T16:22:48.525Z,20.27
2022-10-17T16:25:22.624Z,26.08
2022-10-17T16:27:53.073Z,22.02
2022-10-17T16:32:49.501Z,20.75
2022-10-17T16:35:18.892Z,19.42
2022-10-17T16:37:45.857Z,19.80
2022-10-17T16:40:31.225Z,21.23
2022-10-17T16:42:58.319Z,20.83
2022-10-17T16:45:25.164Z,18.75
2022-10-17T16:47:53.361Z,22.20
2022-10-17T16:50:20.347Z,23.48
2022-10-17T16:52:47.392Z,17.90
2022-10-17T16:55:14.668Z,24.38
2022-10-17T17:00:12.130Z,24.83
2022-10-17T17:02:39.051Z,31.10
2022-10-17T17:05:06.347Z,27.20
2022-10-17T17:07:33.891Z,30.00
2022-10-17T17:10:00.766Z,29.38
2022-10-17T17:12:27.567Z,34.72
2022-10-17T17:14:54.379Z,28.20
2022-10-17T17:17:30.589Z,29.90
2022-10-17T17:20:08.486Z,32.58
2022-10-17T17:22:35.426Z,32.90
2022-10-17T17:25:02.252Z,35.90
2022-10-17T17:27:29.474Z,31.25
2022-10-17T17:29:56.577Z,32.35
2022-10-17T17:32:23.577Z,41.80
2022-10-17T17:34:50.405Z,36.83
2022-10-17T17:37:17.526Z,35.50
2022-10-17T17:39:44.431Z,32.90
2022-10-17T17:44:48.843Z,35.53
2022-10-17T17:47:16.007Z,41.90
2022-10-17T17:49:43.183Z,39.58
2022-10-17T17:52:10.087Z,40.75
2022-10-17T17:54:40.047Z,41.30
2022-10-17T17:57:07.924Z,41.28
2022-10-17T17:59:35.481Z,41.67
2022-10-17T18:02:03.055Z,42.00
2022-10-17T18:04:29.927Z,49.85
2022-10-17T18:06:56.749Z,44.78
2022-10-17T18:09:24.186Z,44.85
2022-10-17T18:11:51.288Z,43.97
2022-10-17T18:14:19.355Z,41.65
2022-10-17T18:16:46.207Z,44.88
2022-10-17T18:19:13.117Z,42.28
2022-10-17T18:21:39.958Z,42.00
2022-10-17T18:24:07.521Z,42.75
2022-10-17T18:26:34.989Z,40.40
2022-10-17T18:29:02.406Z,39.97
2022-10-17T18:31:32.307Z,39.22
2022-10-17T18:34:00.386Z,38.25
2022-10-17T18:36:28.747Z,37.53
2022-10-17T18:38:56.417Z,36.38
2022-10-17T18:41:26.695Z,36.42
2022-10-17T18:43:55.756Z,40.22
2022-10-17T18:46:28.349Z,42.63
2022-10-17T18:48:55.258Z,39.88
2022-10-17T18:51:23.723Z,35.83
2022-10-17T18:53:53.205Z,37.45
2022-10-17T18:56:21.471Z,63.92
2022-10-17T18:58:48.474Z,50.30
2022-10-17T19:01:22.521Z,39.88
2022-10-17T19:03:52.115Z,39.63
2022-10-17T19:06:21.945Z,46.58
2022-10-17T19:08:49.063Z,41.50
2022-10-17T19:11:19.515Z,42.72
2022-10-17T19:13:47.732Z,38.72
2022-10-17T19:16:19.044Z,41.53
2022-10-17T19:18:53.916Z,44.33
2022-10-17T19:21:22.332Z,40.42
2022-10-17T19:23:51.493Z,38.40
2022-10-17T19:26:19.683Z,43.20
2022-10-17T19:28:47.768Z,46.90
2022-10-17T19:31:17.012Z,41.03
2022-10-17T19:33:44.933Z,40.53
2022-10-17T19:36:13.152Z,46.17
2022-10-17T19:38:40.182Z,40.72
2022-10-17T19:41:09.560Z,40.15
2022-10-17T19:43:38.051Z,56.97
2022-10-17T19:46:12.233Z,42.65
2022-10-17T19:48:39.498Z,49.92
2022-10-17T19:51:08.322Z,51.08
2022-10-17T19:53:35.489Z,52.38
2022-10-17T19:56:02.603Z,56.15
2022-10-17T19:58:29.482Z,46.80
2022-10-17T20:00:59.092Z,52.22
2022-10-17T20:03:25.889Z,56.35
2022-10-17T20:05:54.074Z,47.97
2022-10-17T20:08:21.574Z,44.67
2022-10-17T20:10:48.467Z,47.95
2022-10-17T20:13:15.306Z,53.63
2022-10-17T20:15:42.473Z,49.97
2022-10-17T20:18:09.863Z,48.45
2022-10-17T20:20:37.860Z,53.85
2022-10-17T20:23:05.049Z,63.63
2022-10-17T20:25:33.536Z,68.15
2022-10-17T20:28:00.732Z,72.85
2022-10-17T20:30:27.865Z,69.45
2022-10-17T20:32:55.439Z,83.47
2022-10-17T20:35:22.843Z,78.97
2022-10-17T20:37:49.965Z,94.13
2022-10-17T20:40:34.167Z,91.88
2022-10-17T20:43:01.871Z,101.65
2022-10-17T20:45:43.680Z,87.90
2022-10-17T20:48:16.235Z,76.50
2022-10-17T20:50:44.450Z,96.60
2022-10-17T20:56:08.522Z,91.72
2022-10-17T20:58:35.735Z,94.60
2022-10-17T21:01:10.616Z,93.00
2022-10-17T21:03:42.320Z,90.30
2022-10-17T21:06:13.131Z,99.00
2022-10-17T21:08:40.203Z,95.15
2022-10-17T21:11:12.158Z,95.18
2022-10-17T21:13:39.845Z,95.40
2022-10-17T21:16:18.197Z,95.78
2022-10-17T21:18:46.775Z,90.88
2022-10-17T21:21:16.483Z,86.68
2022-10-17T21:23:46.296Z,92.63
2022-10-17T21:26:13.772Z,79.47
2022-10-17T21:28:42.161Z,81.45
2022-10-17T21:31:11.259Z,77.18
2022-10-17T21:33:38.498Z,77.40
2022-10-17T21:36:05.765Z,82.43
2022-10-17T21:38:35.972Z,78.60
2022-10-17T21:41:03.283Z,82.30
2022-10-17T21:43:30.086Z,82.45
2022-10-17T21:45:56.903Z,77.47
2022-10-17T21:48:23.825Z,88.03
2022-10-17T21:50:56.935Z,86.95
2022-10-17T21:53:23.783Z,81.13
2022-10-17T21:55:50.665Z,81.10
2022-10-17T21:58:17.510Z,87.60
2022-10-17T22:00:44.343Z,75.90
2022-10-17T22:03:29.833Z,85.95
2022-10-17T22:06:07.022Z,78.90
2022-10-17T22:08:43.692Z,85.38
2022-10-17T22:11:13.492Z,82.90
2022-10-17T22:13:40.677Z,85.97
2022-10-17T22:16:11.124Z,83.80
2022-10-17T22:18:38.541Z,77.53
2022-10-17T22:21:16.283Z,78.28
2022-10-17T22:23:45.388Z,77.88
2022-10-17T22:26:12.560Z,84.10
2022-10-17T22:28:41.036Z,85.32
2022-10-17T22:33:33.824Z,84.17
2022-10-17T22:36:00.944Z,76.97
2022-10-17T22:38:28.211Z,73.38
2022-10-17T22:40:55.094Z,79.15
2022-10-17T22:43:22.091Z,78.93
2022-10-17T22:45:59.992Z,79.28
2022-10-17T22:48:28.072Z,76.88
2022-10-17T22:50:56.163Z,80.78
2022-10-17T22:53:24.958Z,63.20
2022-10-17T22:55:59.104Z,62.00
2022-10-17T22:58:27.453Z,69.78
2022-10-17T23:00:55.366Z,63.45
2022-10-17T23:03:23.652Z,64.05
2022-10-17T23:05:51.545Z,63.25
2022-10-17T23:08:19.861Z,66.63
2022-10-17T23:10:48.044Z,60.72
2022-10-17T23:13:15.562Z,71.93
2022-10-17T23:15:42.983Z,71.85
2022-10-17T23:18:10.209Z,70.25
2022-10-17T23:20:37.828Z,75.50
2022-10-17T23:23:05.331Z,75.57
2022-10-17T23:25:34.536Z,78.97
2022-10-17T23:28:01.830Z,66.90
2022-10-17T23:30:29.103Z,71.15
2022-10-17T23:32:56.139Z,73.70
2022-10-17T23:35:23.345Z,68.65
2022-10-17T23:37:50.641Z,73.80
2022-10-17T23:40:17.622Z,76.07
2022-10-17T23:42:45.222Z,75.53
2022-10-17T23:45:12.131Z,74.65
2022-10-17T23:47:39.762Z,70.47
2022-10-17T23:50:08.655Z,77.30
2022-10-17T23:52:35.521Z,69.47
2022-10-17T23:55:02.470Z,67.65
2022-10-17T23:57:29.466Z,64.95
2022-10-17T23:59:56.713Z,66.80
